createdAt,value
2023-04-07T00:01:24.789Z,100478.70
2023-04-07T00:03:55.227Z,100475.20
2023-04-07T00:06:25.832Z,100476.96
2023-04-07T00:08:56.203Z,100473.42
2023-04-07T00:11:27.038Z,100470.27
2023-04-07T00:13:57.396Z,100470.57
2023-04-07T00:16:27.816Z,100472.80
2023-04-07T00:18:58.231Z,100462.41
2023-04-07T00:21:28.644Z,100461.20
2023-04-07T00:23:59.262Z,100454.54
2023-04-07T00:26:31.613Z,100450.00
2023-04-07T00:29:02.061Z,100446.14
2023-04-07T00:31:32.629Z,100447.23
2023-04-07T00:34:03.102Z,100447.04
2023-04-07T00:36:33.484Z,100442.16
2023-04-07T00:39:03.862Z,100440.06
2023-04-07T00:41:36.779Z,100435.37
2023-04-07T00:44:08.072Z,100432.92
2023-04-07T00:46:38.755Z,100429.41
2023-04-07T00:49:11.234Z,100426.80
2023-04-07T00:51:42.147Z,100423.81
2023-04-07T00:54:13.113Z,100418.54
2023-04-07T00:56:43.838Z,100416.27
2023-04-07T00:59:14.461Z,100406.98
2023-04-07T01:01:49.799Z,100404.34
2023-04-07T01:04:28.980Z,100400.85
2023-04-07T01:07:05.042Z,100397.50
2023-04-07T01:09:46.959Z,100392.73
2023-04-07T01:12:30.359Z,100391.66
2023-04-07T01:15:08.611Z,100391.48
2023-04-07T01:17:47.564Z,100387.42
2023-04-07T01:20:22.748Z,100385.48
2023-04-07T01:23:03.490Z,100380.40
2023-04-07T01:25:55.182Z,100382.96
2023-04-07T01:28:40.456Z,100383.66
2023-04-07T01:31:13.488Z,100379.92
2023-04-07T01:33:47.172Z,100378.02
2023-04-07T01:36:19.469Z,100376.77
2023-04-07T01:38:52.060Z,100378.87
2023-04-07T01:41:24.718Z,100376.83
2023-04-07T01:43:56.372Z,100378.41
2023-04-07T01:46:28.318Z,100378.27
2023-04-07T01:48:59.281Z,100376.37
2023-04-07T01:51:32.711Z,100373.94
2023-04-07T01:54:05.355Z,100372.91
2023-04-07T01:56:35.668Z,100371.36
2023-04-07T01:59:09.876Z,100371.36
2023-04-07T02:01:41.038Z,100369.30
2023-04-07T02:04:13.769Z,100367.38
2023-04-07T02:06:51.402Z,100370.01
2023-04-07T02:09:25.379Z,100368.47
2023-04-07T02:11:59.382Z,100366.40
2023-04-07T02:14:30.782Z,100360.77
2023-04-07T02:17:10.647Z,100363.71
2023-04-07T02:19:42.624Z,100359.67
2023-04-07T02:22:14.636Z,100360.33
2023-04-07T02:24:45.429Z,100355.77
2023-04-07T02:27:16.082Z,100356.09
2023-04-07T02:29:46.489Z,100354.16
2023-04-07T02:32:17.897Z,100348.02
2023-04-07T02:34:48.438Z,100344.67
2023-04-07T02:37:18.879Z,100344.42
2023-04-07T02:39:49.262Z,100342.98
2023-04-07T02:42:19.545Z,100342.45
2023-04-07T02:44:49.910Z,100340.84
2023-04-07T02:47:20.626Z,100336.10
2023-04-07T02:49:51.001Z,100339.36
2023-04-07T02:52:21.473Z,100337.09
2023-04-07T02:54:52.385Z,100335.66
2023-04-07T02:57:24.746Z,100334.40
2023-04-07T02:59:58.310Z,100333.68
2023-04-07T03:02:32.098Z,100327.39
2023-04-07T03:05:04.403Z,100325.30
2023-04-07T03:07:34.758Z,100326.73
2023-04-07T03:10:05.792Z,100324.86
2023-04-07T03:12:36.486Z,100328.75
2023-04-07T03:15:08.342Z,100324.90
2023-04-07T03:17:39.786Z,100323.70
2023-04-07T03:20:12.104Z,100325.79
2023-04-07T03:22:42.845Z,100323.15
2023-04-07T03:25:16.132Z,100322.77
2023-04-07T03:27:46.857Z,100319.61
2023-04-07T03:30:18.194Z,100319.80
2023-04-07T03:32:49.047Z,100317.33
2023-04-07T03:35:19.475Z,100321.67
2023-04-07T03:37:49.788Z,100317.09
2023-04-07T03:40:21.964Z,100313.91
2023-04-07T03:42:52.311Z,100312.31
2023-04-07T03:45:22.776Z,100313.35
2023-04-07T03:47:54.334Z,100314.76
2023-04-07T03:50:25.059Z,100315.60
2023-04-07T03:53:06.135Z,100309.47
2023-04-07T03:55:38.829Z,100306.30
2023-04-07T03:58:15.494Z,100310.34
2023-04-07T04:00:48.355Z,100308.96
2023-04-07T04:03:19.779Z,100309.81
2023-04-07T04:06:09.460Z,100308.63
2023-04-07T04:08:40.396Z,100309.00
2023-04-07T04:11:10.863Z,100308.48
2023-04-07T04:13:46.774Z,100311.10
2023-04-07T04:16:17.241Z,100312.18
2023-04-07T04:18:48.133Z,100313.45
2023-04-07T04:21:18.781Z,100315.89
2023-04-07T04:23:49.872Z,100320.27
2023-04-07T04:26:20.951Z,100319.02
2023-04-07T04:28:53.476Z,100321.46
2023-04-07T04:31:24.696Z,100320.92
2023-04-07T04:33:55.388Z,100322.30
2023-04-07T04:36:27.596Z,100320.02
2023-04-07T04:39:01.867Z,100322.46
2023-04-07T04:41:32.583Z,100326.32
2023-04-07T04:44:03.584Z,100323.16
2023-04-07T04:46:34.689Z,100321.77
2023-04-07T04:49:06.430Z,100319.67
2023-04-07T04:51:37.802Z,100315.98
2023-04-07T04:54:15.001Z,100321.63
2023-04-07T04:56:45.445Z,100321.84
2023-04-07T04:59:15.885Z,100325.02
2023-04-07T05:01:56.165Z,100322.61
2023-04-07T05:04:28.384Z,100325.94
2023-04-07T05:07:05.133Z,100323.54
2023-04-07T05:09:36.071Z,100317.59
2023-04-07T05:12:07.368Z,100314.45
2023-04-07T05:14:41.429Z,100311.68
2023-04-07T05:17:12.188Z,100315.90
2023-04-07T05:19:43.106Z,100315.55
2023-04-07T05:22:17.751Z,100318.31
2023-04-07T05:24:50.478Z,100318.80
2023-04-07T05:27:21.772Z,100320.32
2023-04-07T05:29:55.113Z,100319.55
2023-04-07T05:32:31.811Z,100316.90
2023-04-07T05:35:03.686Z,100318.80
2023-04-07T05:37:35.967Z,100315.79
2023-04-07T05:40:09.725Z,100319.63
2023-04-07T05:42:40.209Z,100321.52
2023-04-07T05:45:12.888Z,100326.71
2023-04-07T05:47:47.433Z,100332.28
2023-04-07T05:50:18.723Z,100329.98
2023-04-07T05:52:48.664Z,100326.23
2023-04-07T05:55:24.783Z,100326.69
2023-04-07T05:57:55.693Z,100324.52
2023-04-07T06:00:27.778Z,100324.59
2023-04-07T06:03:11.054Z,100323.84
2023-04-07T06:05:51.050Z,100324.47
2023-04-07T06:08:23.207Z,100324.73
2023-04-07T06:10:53.714Z,100325.70
2023-04-07T06:13:24.540Z,100328.08
2023-04-07T06:15:55.751Z,100330.80
2023-04-07T06:18:26.298Z,100328.40
2023-04-07T06:20:57.036Z,100328.79
2023-04-07T06:23:29.374Z,100329.88
2023-04-07T06:25:59.905Z,100329.20
2023-04-07T06:28:30.385Z,100330.61
2023-04-07T06:31:02.379Z,100330.59
2023-04-07T06:33:33.403Z,100327.59
2023-04-07T06:36:03.989Z,100331.89
2023-04-07T06:38:34.466Z,100333.40
2023-04-07T06:41:05.501Z,100336.14
2023-04-07T06:43:36.084Z,100339.60
2023-04-07T06:46:07.960Z,100337.86
2023-04-07T06:48:38.471Z,100334.28
2023-04-07T06:51:08.963Z,100333.17
2023-04-07T06:53:39.456Z,100332.57
2023-04-07T06:56:12.414Z,100331.23
2023-04-07T06:58:43.028Z,100326.75
2023-04-07T07:01:13.577Z,100326.45
2023-04-07T07:03:44.002Z,100326.23
2023-04-07T07:06:14.657Z,100328.65
2023-04-07T07:08:45.048Z,100326.58
2023-04-07T07:11:15.391Z,100328.52
2023-04-07T07:13:46.608Z,100327.27
2023-04-07T07:16:15.925Z,100327.97
2023-04-07T07:18:46.518Z,100331.58
2023-04-07T07:21:18.322Z,100334.15
2023-04-07T07:23:47.468Z,100336.67
2023-04-07T07:26:18.332Z,100334.67
2023-04-07T07:28:48.806Z,100330.52
2023-04-07T07:31:19.259Z,100332.13
2023-04-07T07:33:51.595Z,100334.76
2023-04-07T07:36:21.918Z,100331.58
2023-04-07T07:38:53.728Z,100328.01
2023-04-07T07:41:24.103Z,100323.89
2023-04-07T07:43:54.596Z,100328.08
2023-04-07T07:46:27.486Z,100328.02
2023-04-07T07:48:58.043Z,100328.33
2023-04-07T07:51:28.964Z,100326.79
2023-04-07T07:53:59.470Z,100319.02
2023-04-07T07:56:30.073Z,100323.46
2023-04-07T07:59:00.772Z,100321.22
2023-04-07T08:01:31.242Z,100326.31
2023-04-07T08:04:01.710Z,100333.83
2023-04-07T08:06:32.709Z,100332.70
2023-04-07T08:09:03.149Z,100334.16
2023-04-07T08:11:33.560Z,100334.28
2023-04-07T08:14:04.061Z,100334.61
2023-04-07T08:16:34.777Z,100340.87
2023-04-07T08:19:05.603Z,100343.45
2023-04-07T08:21:36.105Z,100345.36
2023-04-07T08:24:06.885Z,100351.36
2023-04-07T08:26:37.518Z,100357.80
2023-04-07T08:29:08.090Z,100361.73
2023-04-07T08:31:38.661Z,100362.71
2023-04-07T08:34:09.164Z,100362.02
2023-04-07T08:36:39.952Z,100363.07
2023-04-07T08:39:09.339Z,100362.55
2023-04-07T08:41:42.495Z,100360.39
2023-04-07T08:44:14.438Z,100361.80
2023-04-07T08:46:48.172Z,100363.28
2023-04-07T08:49:21.284Z,100363.59
2023-04-07T08:51:54.066Z,100361.28
2023-04-07T08:54:24.830Z,100364.89
2023-04-07T08:56:55.838Z,100362.91
2023-04-07T08:59:29.706Z,100359.95
2023-04-07T09:02:00.484Z,100367.15
2023-04-07T09:04:31.717Z,100367.24
2023-04-07T09:07:03.155Z,100368.67
2023-04-07T09:09:33.739Z,100367.84
2023-04-07T09:12:04.644Z,100371.06
2023-04-07T09:14:38.683Z,100374.94
2023-04-07T09:17:09.372Z,100374.77
2023-04-07T09:19:40.119Z,100383.23
2023-04-07T09:22:12.783Z,100381.28
2023-04-07T09:24:43.940Z,100383.27
2023-04-07T09:27:19.976Z,100386.18
2023-04-07T09:29:50.546Z,100389.20
2023-04-07T09:32:39.228Z,100393.64
2023-04-07T09:35:10.801Z,100392.71
2023-04-07T09:37:42.510Z,100390.09
2023-04-07T09:40:13.868Z,100390.98
2023-04-07T09:42:49.437Z,100387.52
2023-04-07T09:45:34.587Z,100389.16
2023-04-07T09:48:11.023Z,100391.55
2023-04-07T09:50:45.975Z,100389.49
2023-04-07T09:53:16.939Z,100388.84
2023-04-07T09:55:48.038Z,100384.66
2023-04-07T09:58:18.991Z,100380.59
2023-04-07T10:00:50.794Z,100372.09
2023-04-07T10:03:21.396Z,100374.33
2023-04-07T10:05:52.091Z,100373.84
2023-04-07T10:08:22.648Z,100372.91
2023-04-07T10:10:53.549Z,100375.98
2023-04-07T10:13:25.891Z,100373.29
2023-04-07T10:15:56.610Z,100370.24
2023-04-07T10:18:30.588Z,100369.04
2023-04-07T10:21:03.579Z,100370.33
2023-04-07T10:23:44.898Z,100368.58
2023-04-07T10:26:15.873Z,100366.50
2023-04-07T10:28:50.813Z,100365.91
2023-04-07T10:31:22.398Z,100366.38
2023-04-07T10:33:55.120Z,100370.45
2023-04-07T10:36:26.600Z,100368.83
2023-04-07T10:39:25.020Z,100376.63
2023-04-07T10:41:57.143Z,100376.98
2023-04-07T10:44:50.665Z,100382.11
2023-04-07T10:47:21.414Z,100389.09
2023-04-07T10:50:18.937Z,100395.23
2023-04-07T10:52:50.607Z,100398.09
2023-04-07T10:55:36.052Z,100402.45
2023-04-07T10:58:27.073Z,100404.27
2023-04-07T11:01:29.492Z,100405.28
2023-04-07T11:04:05.241Z,100407.56
2023-04-07T11:06:35.728Z,100410.12
2023-04-07T11:09:06.611Z,100411.51
2023-04-07T11:11:46.370Z,100406.83
2023-04-07T11:14:28.242Z,100406.05
2023-04-07T11:16:59.162Z,100404.05
2023-04-07T11:19:29.791Z,100403.64
2023-04-07T11:22:29.449Z,100406.44
2023-04-07T11:25:01.451Z,100405.58
2023-04-07T11:27:31.889Z,100406.73
2023-04-07T11:30:09.738Z,100409.88
2023-04-07T11:32:40.402Z,100410.29
2023-04-07T11:35:12.499Z,100412.22
2023-04-07T11:37:43.091Z,100411.11
2023-04-07T11:40:16.965Z,100411.77
2023-04-07T11:42:47.644Z,100407.56
2023-04-07T11:45:21.536Z,100410.28
2023-04-07T11:47:51.980Z,100406.45
2023-04-07T11:50:40.967Z,100409.06
2023-04-07T11:53:11.618Z,100408.04
2023-04-07T11:55:41.981Z,100407.19
2023-04-07T11:58:12.558Z,100412.12
2023-04-07T12:00:57.151Z,100411.39
2023-04-07T12:03:27.743Z,100411.46
2023-04-07T12:05:58.444Z,100411.20
2023-04-07T12:08:41.725Z,100414.59
2023-04-07T12:11:12.300Z,100417.83
2023-04-07T12:13:42.728Z,100420.04
2023-04-07T12:16:13.220Z,100422.95
2023-04-07T12:18:44.279Z,100423.39
2023-04-07T12:21:14.819Z,100422.92
2023-04-07T12:23:46.069Z,100420.71
2023-04-07T12:26:15.556Z,100426.75
2023-04-07T12:28:45.975Z,100426.72
2023-04-07T12:31:16.840Z,100428.11
2023-04-07T12:33:47.450Z,100430.02
2023-04-07T12:36:18.406Z,100430.27
2023-04-07T12:38:49.521Z,100432.79
2023-04-07T12:41:20.360Z,100428.54
2023-04-07T12:43:51.995Z,100431.44
2023-04-07T12:46:25.831Z,100430.58
2023-04-07T12:48:58.118Z,100435.07
2023-04-07T12:51:30.623Z,100436.39
2023-04-07T12:54:05.056Z,100438.90
2023-04-07T12:56:38.806Z,100440.00
2023-04-07T12:59:10.362Z,100438.53
2023-04-07T13:01:44.463Z,100438.42
2023-04-07T13:04:15.586Z,100440.95
2023-04-07T13:06:46.327Z,100440.27
2023-04-07T13:09:18.985Z,100442.83
2023-04-07T13:11:49.541Z,100448.50
2023-04-07T13:14:20.101Z,100447.48
2023-04-07T13:16:50.864Z,100445.75
2023-04-07T13:19:22.063Z,100446.42
2023-04-07T13:21:52.675Z,100446.11
2023-04-07T13:24:23.206Z,100446.46
2023-04-07T13:26:53.854Z,100451.27
2023-04-07T13:29:24.738Z,100452.15
2023-04-07T13:32:05.550Z,100450.27
2023-04-07T13:34:36.488Z,100448.40
2023-04-07T13:37:07.310Z,100448.43
2023-04-07T13:39:37.849Z,100447.11
2023-04-07T13:42:10.922Z,100445.40
2023-04-07T13:44:46.771Z,100449.64
2023-04-07T13:47:19.820Z,100444.89
2023-04-07T13:49:52.082Z,100446.42
2023-04-07T13:52:26.795Z,100443.23
2023-04-07T13:54:57.622Z,100442.14
2023-04-07T13:57:28.555Z,100446.04
2023-04-07T13:59:59.198Z,100443.91
2023-04-07T14:02:30.739Z,100447.42
2023-04-07T14:05:05.204Z,100448.23
2023-04-07T14:07:40.505Z,100455.25
2023-04-07T14:10:11.991Z,100454.58
2023-04-07T14:12:52.803Z,100455.23
2023-04-07T14:18:55.999Z,100449.34
2023-04-07T14:21:29.928Z,100450.86
2023-04-07T14:24:01.127Z,100449.11
2023-04-07T14:26:31.865Z,100447.14
2023-04-07T14:29:02.600Z,100447.79
2023-04-07T14:31:35.698Z,100445.52
2023-04-07T14:34:09.608Z,100440.22
2023-04-07T14:36:40.061Z,100438.96
2023-04-07T14:39:12.526Z,100438.34
2023-04-07T14:41:47.857Z,100437.10
2023-04-07T14:44:18.444Z,100435.96
2023-04-07T14:46:49.280Z,100433.66
2023-04-07T14:49:19.794Z,100434.63
2023-04-07T14:51:50.415Z,100437.84
2023-04-07T14:54:21.772Z,100432.67
2023-04-07T14:56:52.210Z,100434.03
2023-04-07T14:59:22.870Z,100438.62
2023-04-07T15:01:54.042Z,100439.66
2023-04-07T15:04:24.652Z,100445.30
2023-04-07T15:06:55.236Z,100445.15
2023-04-07T15:09:25.829Z,100447.45
2023-04-07T15:11:56.916Z,100450.34
2023-04-07T15:14:25.940Z,100450.14
2023-04-07T15:16:56.336Z,100454.64
2023-04-07T15:19:26.973Z,100456.05
2023-04-07T15:21:57.427Z,100456.76
2023-04-07T15:24:28.206Z,100456.61
2023-04-07T15:26:58.943Z,100461.05
2023-04-07T15:29:29.810Z,100463.75
2023-04-07T15:32:00.723Z,100460.63
2023-04-07T15:34:33.964Z,100462.80
2023-04-07T15:37:04.860Z,100469.28
2023-04-07T15:39:35.774Z,100467.94
2023-04-07T15:42:09.835Z,100466.72
2023-04-07T15:44:40.755Z,100469.45
2023-04-07T15:47:11.596Z,100472.81
2023-04-07T15:49:42.306Z,100474.59
2023-04-07T15:52:14.862Z,100476.99
2023-04-07T15:54:45.708Z,100478.41
2023-04-07T15:57:16.962Z,100478.63
2023-04-07T15:59:47.565Z,100482.00
2023-04-07T16:02:18.531Z,100481.67
2023-04-07T16:04:52.187Z,100489.41
2023-04-07T16:07:22.754Z,100488.02
2023-04-07T16:09:53.290Z,100488.11
2023-04-07T16:12:23.615Z,100490.68
2023-04-07T16:14:54.541Z,100489.27
2023-04-07T16:17:25.418Z,100491.52
2023-04-07T16:19:57.567Z,100495.80
2023-04-07T16:22:28.192Z,100498.13
2023-04-07T16:24:58.868Z,100499.49
2023-04-07T16:27:29.525Z,100497.21
2023-04-07T16:30:13.938Z,100501.91
2023-04-07T16:32:46.478Z,100501.51
2023-04-07T16:35:23.081Z,100505.02
2023-04-07T16:37:54.833Z,100507.50
2023-04-07T16:40:25.686Z,100508.80
2023-04-07T16:42:58.882Z,100509.26
2023-04-07T16:45:29.622Z,100514.73
2023-04-07T16:48:00.534Z,100514.84
2023-04-07T16:50:31.299Z,100521.39
2023-04-07T16:53:02.036Z,100522.20
2023-04-07T16:55:32.660Z,100524.03
2023-04-07T16:58:03.369Z,100529.11
2023-04-07T17:00:44.012Z,100529.98
2023-04-07T17:03:16.102Z,100532.36
2023-04-07T17:05:49.718Z,100535.67
2023-04-07T17:08:20.331Z,100537.52
2023-04-07T17:10:50.790Z,100538.05
2023-04-07T17:13:21.325Z,100539.65
2023-04-07T17:15:52.003Z,100545.70
2023-04-07T17:18:22.709Z,100549.02
2023-04-07T17:21:13.597Z,100552.30
2023-04-07T17:23:55.370Z,100552.89
2023-04-07T17:26:26.179Z,100555.16
2023-04-07T17:28:59.872Z,100559.50
2023-04-07T17:31:51.848Z,100566.09
2023-04-07T17:34:25.558Z,100565.09
2023-04-07T17:37:16.278Z,100566.67
2023-04-07T17:39:47.040Z,100569.46
2023-04-07T17:42:20.560Z,100570.79
2023-04-07T17:45:16.138Z,100573.20
2023-04-07T17:47:48.710Z,100579.28
2023-04-07T17:50:20.005Z,100579.92
2023-04-07T17:53:01.472Z,100583.01
2023-04-07T17:55:32.208Z,100585.59
2023-04-07T17:58:06.735Z,100589.59
2023-04-07T18:00:40.522Z,100590.31
2023-04-07T18:03:14.307Z,100590.67
2023-04-07T18:05:47.826Z,100594.23
2023-04-07T18:08:18.600Z,100597.42
2023-04-07T18:10:49.025Z,100597.30
2023-04-07T18:13:19.776Z,100603.67
2023-04-07T18:15:55.542Z,100606.00
2023-04-07T18:18:26.182Z,100608.30
2023-04-07T18:21:01.282Z,100615.90
2023-04-07T18:23:34.317Z,100617.49
2023-04-07T18:26:07.134Z,100621.55
2023-04-07T18:28:40.922Z,100626.20
2023-04-07T18:31:12.352Z,100634.05
2023-04-07T18:33:46.064Z,100634.52
2023-04-07T18:36:27.387Z,100639.68
2023-04-07T18:39:17.012Z,100642.77
2023-04-07T18:41:48.297Z,100645.20
2023-04-07T18:44:29.022Z,100644.85
2023-04-07T18:46:59.763Z,100650.38
2023-04-07T18:49:53.196Z,100654.75
2023-04-07T18:52:23.973Z,100659.02
2023-04-07T18:54:57.887Z,100664.52
2023-04-07T18:57:28.449Z,100666.86
2023-04-07T19:00:19.518Z,100668.70
2023-04-07T19:02:57.430Z,100672.24
2023-04-07T19:05:30.638Z,100673.35
2023-04-07T19:08:08.907Z,100673.42
2023-04-07T19:10:59.580Z,100675.76
2023-04-07T19:13:30.763Z,100678.95
2023-04-07T19:16:01.946Z,100677.45
2023-04-07T19:18:32.557Z,100684.57
2023-04-07T19:21:03.290Z,100687.88
2023-04-07T19:23:50.924Z,100691.71
2023-04-07T19:26:21.796Z,100695.42
2023-04-07T19:29:03.084Z,100697.23
2023-04-07T19:31:35.956Z,100705.38
2023-04-07T19:34:08.910Z,100704.08
2023-04-07T19:36:39.561Z,100706.09
2023-04-07T19:39:16.321Z,100711.13
2023-04-07T19:41:50.159Z,100714.36
2023-04-07T19:44:34.465Z,100716.26
2023-04-07T19:47:07.752Z,100717.47
2023-04-07T19:49:38.231Z,100721.80
2023-04-07T19:52:22.213Z,100720.55
2023-04-07T19:54:55.578Z,100722.49
2023-04-07T19:57:30.958Z,100725.60
2023-04-07T20:00:21.988Z,100729.52
2023-04-07T20:02:53.269Z,100734.58
2023-04-07T20:05:27.052Z,100731.92
2023-04-07T20:08:17.748Z,100734.55
2023-04-07T20:10:48.442Z,100732.70
2023-04-07T20:13:40.148Z,100734.05
2023-04-07T20:16:16.137Z,100740.96
2023-04-07T20:18:48.116Z,100743.11
2023-04-07T20:21:39.219Z,100747.59
2023-04-07T20:24:30.854Z,100748.42
2023-04-07T20:26:59.814Z,100748.14
2023-04-07T20:29:34.686Z,100749.64
2023-04-07T20:32:05.271Z,100750.25
2023-04-07T20:34:38.427Z,100750.11
2023-04-07T20:37:18.016Z,100749.39
2023-04-07T20:39:55.662Z,100749.17
2023-04-07T20:42:37.446Z,100746.68
2023-04-07T20:45:22.108Z,100746.81
2023-04-07T20:48:00.250Z,100743.97
2023-04-07T20:50:31.214Z,100749.81
2023-04-07T20:53:02.519Z,100751.84
2023-04-07T20:55:36.093Z,100749.15
2023-04-07T20:58:09.418Z,100751.20
2023-04-07T21:00:43.292Z,100749.23
2023-04-07T21:03:16.442Z,100749.02
2023-04-07T21:06:07.054Z,100750.58
2023-04-07T21:08:48.851Z,100746.87
2023-04-07T21:11:22.989Z,100754.65
2023-04-07T21:14:01.564Z,100756.80
2023-04-07T21:16:46.264Z,100757.33
2023-04-07T21:19:37.304Z,100757.09
2023-04-07T21:22:28.865Z,100754.57
2023-04-07T21:25:07.102Z,100757.78
2023-04-07T21:27:47.641Z,100755.24
2023-04-07T21:30:18.389Z,100760.89
2023-04-07T21:32:49.501Z,100757.28
2023-04-07T21:35:40.413Z,100758.58
2023-04-07T21:38:21.106Z,100760.41
2023-04-07T21:40:54.030Z,100761.15
2023-04-07T21:43:35.275Z,100763.09
2023-04-07T21:46:06.397Z,100762.21
2023-04-07T21:48:40.091Z,100763.12
2023-04-07T21:51:30.877Z,100763.04
2023-04-07T21:54:12.395Z,100765.56
2023-04-07T21:56:49.074Z,100767.55
2023-04-07T21:59:40.217Z,100766.98
2023-04-07T22:02:31.106Z,100766.86
2023-04-07T22:05:22.977Z,100773.48
2023-04-07T22:07:56.673Z,100778.99
2023-04-07T22:10:27.618Z,100782.98
2023-04-07T22:13:18.392Z,100782.91
2023-04-07T22:16:02.174Z,100783.17
2023-04-07T22:18:53.069Z,100787.45
2023-04-07T22:21:28.416Z,100784.20
2023-04-07T22:24:19.137Z,100786.52
2023-04-07T22:27:09.900Z,100789.73
2023-04-07T22:30:00.918Z,100792.58
2023-04-07T22:32:41.818Z,100797.97
2023-04-07T22:35:22.641Z,100797.75
2023-04-07T22:37:55.899Z,100803.45
2023-04-07T22:40:29.231Z,100802.16
2023-04-07T22:43:09.918Z,100810.14
2023-04-07T22:45:42.893Z,100807.95
2023-04-07T22:48:33.928Z,100807.14
2023-04-07T22:51:16.490Z,100809.71
2023-04-07T22:54:05.869Z,100810.30
2023-04-07T22:56:39.361Z,100813.33
2023-04-07T22:59:12.365Z,100813.91
2023-04-07T23:01:45.195Z,100815.05
2023-04-07T23:04:15.919Z,100819.54
2023-04-07T23:06:47.489Z,100816.65
2023-04-07T23:09:21.683Z,100813.45
2023-04-07T23:11:52.251Z,100814.80
2023-04-07T23:14:32.669Z,100817.16
2023-04-07T23:17:03.214Z,100816.42
2023-04-07T23:19:33.711Z,100817.78
2023-04-07T23:22:24.654Z,100818.80
2023-04-07T23:25:15.620Z,100822.61
2023-04-07T23:27:46.229Z,100825.16
2023-04-07T23:30:37.353Z,100823.88
2023-04-07T23:33:07.979Z,100825.37
2023-04-07T23:35:59.423Z,100827.26
2023-04-07T23:38:43.965Z,100829.70
2023-04-07T23:41:34.641Z,100830.91
2023-04-07T23:44:10.042Z,100831.08
2023-04-07T23:46:40.549Z,100828.27
2023-04-07T23:49:11.326Z,100830.17
2023-04-07T23:51:44.136Z,100830.20
2023-04-07T23:54:34.895Z,100834.74
2023-04-07T23:57:05.547Z,100834.93
2023-04-07T23:59:43.638Z,100832.98
